sensor_id;sensor_type;location;lat;lon;timestamp;pressure;altitude;pressure_sealevel;temperature;humidity
20909;BME280;10614;53.198;6.570;2023-05-02T00:01:31;101926.06;;;9.91;100.00
20909;BME280;10614;53.198;6.570;2023-05-02T00:03:33;101920.84;;;9.88;100.00
20909;BME280;10614;53.198;6.570;2023-05-02T00:05:34;101923.53;;;9.86;100.00
20909;BME280;10614;53.198;6.570;2023-05-02T00:07:36;101917.41;;;9.86;100.00
20909;BME280;10614;53.198;6.570;2023-05-02T00:09:37;101917.44;;;9.84;100.00
20909;BME280;10614;53.198;6.570;2023-05-02T00:11:39;101922.69;;;9.84;100.00
20909;BME280;10614;53.198;6.570;2023-05-02T00:13:40;101916.47;;;9.88;100.00
20909;BME280;10614;53.198;6.570;2023-05-02T00:15:44;101920.91;;;9.85;100.00
20909;BME280;10614;53.198;6.570;2023-05-02T00:17:46;101937.59;;;9.84;100.00
20909;BME280;10614;53.198;6.570;2023-05-02T00:19:47;101928.88;;;9.82;100.00
20909;BME280;10614;53.198;6.570;2023-05-02T00:21:49;101920.97;;;9.83;100.00
20909;BME280;10614;53.198;6.570;2023-05-02T00:23:50;101922.78;;;9.78;100.00
20909;BME280;10614;53.198;6.570;2023-05-02T00:25:52;101921.91;;;9.79;100.00
20909;BME280;10614;53.198;6.570;2023-05-02T00:27:53;101923.63;;;9.82;100.00
20909;BME280;10614;53.198;6.570;2023-05-02T00:29:55;101926.22;;;9.83;100.00
20909;BME280;10614;53.198;6.570;2023-05-02T00:31:58;101927.94;;;9.86;100.00
20909;BME280;10614;53.198;6.570;2023-05-02T00:34:00;101932.34;;;9.84;100.00
20909;BME280;10614;53.198;6.570;2023-05-02T00:36:02;101931.50;;;9.82;100.00
20909;BME280;10614;53.198;6.570;2023-05-02T00:38:03;101934.22;;;9.79;100.00
20909;BME280;10614;53.198;6.570;2023-05-02T00:40:05;101935.94;;;9.80;100.00
20909;BME280;10614;53.198;6.570;2023-05-02T00:42:07;101938.53;;;9.81;100.00
20909;BME280;10614;53.198;6.570;2023-05-02T00:44:08;101942.91;;;9.81;100.00
20909;BME280;10614;53.198;6.570;2023-05-02T00:46:10;101935.00;;;9.81;100.00
20909;BME280;10614;53.198;6.570;2023-05-02T00:48:13;101928.84;;;9.83;100.00
20909;BME280;10614;53.198;6.570;2023-05-02T00:50:16;101938.53;;;9.81;100.00
20909;BME280;10614;53.198;6.570;2023-05-02T00:52:18;101942.88;;;9.82;100.00
20909;BME280;10614;53.198;6.570;2023-05-02T00:54:19;101936.75;;;9.83;100.00
20909;BME280;10614;53.198;6.570;2023-05-02T00:56:21;101942.88;;;9.84;100.00
20909;BME280;10614;53.198;6.570;2023-05-02T00:58:23;101940.25;;;9.82;100.00
20909;BME280;10614;53.198;6.570;2023-05-02T01:00:26;101935.84;;;9.83;100.00
20909;BME280;10614;53.198;6.570;2023-05-02T01:02:31;101935.84;;;9.84;100.00
20909;BME280;10614;53.198;6.570;2023-05-02T01:04:43;101926.22;;;9.83;100.00
20909;BME280;10614;53.198;6.570;2023-05-02T01:06:51;101926.16;;;9.86;100.00
20909;BME280;10614;53.198;6.570;2023-05-02T01:08:55;101931.38;;;9.88;100.00
20909;BME280;10614;53.198;6.570;2023-05-02T01:11:01;101924.31;;;9.90;100.00
20909;BME280;10614;53.198;6.570;2023-05-02T01:13:05;101926.06;;;9.91;100.00
20909;BME280;10614;53.198;6.570;2023-05-02T01:15:10;101933.00;;;9.95;100.00
20909;BME280;10614;53.198;6.570;2023-05-02T01:17:13;101929.53;;;9.93;100.00
20909;BME280;10614;53.198;6.570;2023-05-02T01:19:18;101940.06;;;9.93;100.00
20909;BME280;10614;53.198;6.570;2023-05-02T01:21:23;101942.78;;;9.88;100.00
20909;BME280;10614;53.198;6.570;2023-05-02T01:23:27;101946.38;;;9.83;100.00
20909;BME280;10614;53.198;6.570;2023-05-02T01:25:32;101944.75;;;9.76;100.00
20909;BME280;10614;53.198;6.570;2023-05-02T01:27:39;101956.06;;;9.81;100.00
20909;BME280;10614;53.198;6.570;2023-05-02T01:29:45;101958.81;;;9.75;100.00
20909;BME280;10614;53.198;6.570;2023-05-02T01:31:50;101956.22;;;9.71;100.00
20909;BME280;10614;53.198;6.570;2023-05-02T01:33:53;101952.78;;;9.69;100.00
20909;BME280;10614;53.198;6.570;2023-05-02T01:35:55;101962.38;;;9.70;100.00
20909;BME280;10614;53.198;6.570;2023-05-02T01:37:57;101967.72;;;9.67;100.00
20909;BME280;10614;53.198;6.570;2023-05-02T01:40:01;101978.16;;;9.70;100.00
20909;BME280;10614;53.198;6.570;2023-05-02T01:42:05;101980.84;;;9.67;100.00
20909;BME280;10614;53.198;6.570;2023-05-02T01:44:06;101980.00;;;9.65;100.00
20909;BME280;10614;53.198;6.570;2023-05-02T01:46:10;101997.63;;;9.60;100.00
20909;BME280;10614;53.198;6.570;2023-05-02T01:48:14;102009.09;;;9.55;100.00
20909;BME280;10614;53.198;6.570;2023-05-02T01:50:17;102002.22;;;9.47;100.00
20909;BME280;10614;53.198;6.570;2023-05-02T01:52:20;102000.59;;;9.40;100.00
20909;BME280;10614;53.198;6.570;2023-05-02T01:54:22;102007.69;;;9.35;100.00
20909;BME280;10614;53.198;6.570;2023-05-02T01:56:26;102010.38;;;9.30;100.00
20909;BME280;10614;53.198;6.570;2023-05-02T01:58:29;102009.47;;;9.33;100.00
20909;BME280;10614;53.198;6.570;2023-05-02T02:00:31;102019.91;;;9.36;100.00
20909;BME280;10614;53.198;6.570;2023-05-02T02:02:35;102024.25;;;9.39;100.00
20909;BME280;10614;53.198;6.570;2023-05-02T02:04:37;102031.31;;;9.37;100.00
20909;BME280;10614;53.198;6.570;2023-05-02T02:06:41;102040.94;;;9.36;100.00
20909;BME280;10614;53.198;6.570;2023-05-02T02:08:44;102044.47;;;9.37;100.00
20909;BME280;10614;53.198;6.570;2023-05-02T02:10:48;102041.84;;;9.34;100.00
20909;BME280;10614;53.198;6.570;2023-05-02T02:12:51;102043.69;;;9.28;100.00
20909;BME280;10614;53.198;6.570;2023-05-02T02:14:55;102051.59;;;9.27;100.00
20909;BME280;10614;53.198;6.570;2023-05-02T02:16:57;102068.31;;;9.23;100.00
20909;BME280;10614;53.198;6.570;2023-05-02T02:19:03;102072.69;;;9.22;100.00
20909;BME280;10614;53.198;6.570;2023-05-02T02:21:06;102072.78;;;9.18;100.00
20909;BME280;10614;53.198;6.570;2023-05-02T02:23:09;102078.91;;;9.17;100.00
20909;BME280;10614;53.198;6.570;2023-05-02T02:25:12;102085.94;;;9.16;100.00
20909;BME280;10614;53.198;6.570;2023-05-02T02:27:14;102082.50;;;9.09;100.00
20909;BME280;10614;53.198;6.570;2023-05-02T02:29:16;102080.81;;;9.05;100.00
20909;BME280;10614;53.198;6.570;2023-05-02T02:31:17;102091.38;;;9.02;100.00
20909;BME280;10614;53.198;6.570;2023-05-02T02:33:19;102094.84;;;9.03;100.00
20909;BME280;10614;53.198;6.570;2023-05-02T02:35:22;102094.06;;;8.98;100.00
20909;BME280;10614;53.198;6.570;2023-05-02T02:37:28;102100.22;;;8.97;100.00
20909;BME280;10614;53.198;6.570;2023-05-02T02:39:34;102118.59;;;8.95;100.00
20909;BME280;10614;53.198;6.570;2023-05-02T02:41:41;102110.72;;;8.94;100.00
20909;BME280;10614;53.198;6.570;2023-05-02T02:43:47;102117.75;;;8.95;100.00
20909;BME280;10614;53.198;6.570;2023-05-02T02:45:55;102117.75;;;8.93;100.00
20909;BME280;10614;53.198;6.570;2023-05-02T02:48:01;102116.03;;;8.92;100.00
20909;BME280;10614;53.198;6.570;2023-05-02T02:50:08;102116.88;;;8.91;100.00
20909;BME280;10614;53.198;6.570;2023-05-02T02:52:16;102126.53;;;8.89;100.00
20909;BME280;10614;53.198;6.570;2023-05-02T02:54:20;102129.28;;;8.81;100.00
20909;BME280;10614;53.198;6.570;2023-05-02T02:56:25;102126.69;;;8.78;100.00
20909;BME280;10614;53.198;6.570;2023-05-02T02:58:29;102132.91;;;8.71;100.00
20909;BME280;10614;53.198;6.570;2023-05-02T03:00:31;102138.22;;;8.63;100.00
20909;BME280;10614;53.198;6.570;2023-05-02T03:02:33;102147.03;;;8.59;100.00
20909;BME280;10614;53.198;6.570;2023-05-02T03:04:37;102141.78;;;8.58;100.00
20909;BME280;10614;53.198;6.570;2023-05-02T03:06:39;102153.19;;;8.55;100.00
20909;BME280;10614;53.198;6.570;2023-05-02T03:08:42;102161.06;;;8.54;100.00
20909;BME280;10614;53.198;6.570;2023-05-02T03:10:44;102161.97;;;8.50;100.00
20909;BME280;10614;53.198;6.570;2023-05-02T03:12:45;102167.28;;;8.47;100.00
20909;BME280;10614;53.198;6.570;2023-05-02T03:14:48;102169.06;;;8.41;100.00
20909;BME280;10614;53.198;6.570;2023-05-02T03:16:50;102165.56;;;8.39;100.00
20909;BME280;10614;53.198;6.570;2023-05-02T03:18:51;102175.19;;;8.39;100.00
20909;BME280;10614;53.198;6.570;2023-05-02T03:20:53;102172.56;;;8.40;100.00
20909;BME280;10614;53.198;6.570;2023-05-02T03:22:55;102180.44;;;8.42;100.00
20909;BME280;10614;53.198;6.570;2023-05-02T03:24:58;102183.06;;;8.40;100.00
20909;BME280;10614;53.198;6.570;2023-05-02T03:27:00;102184.81;;;8.40;100.00
20909;BME280;10614;53.198;6.570;2023-05-02T03:29:02;102186.56;;;8.39;100.00
20909;BME280;10614;53.198;6.570;2023-05-02T03:31:03;102194.47;;;8.35;100.00
20909;BME280;10614;53.198;6.570;2023-05-02T03:33:04;102195.38;;;8.31;100.00
20909;BME280;10614;53.198;6.570;2023-05-02T03:35:07;102194.50;;;8.30;100.00
20909;BME280;10614;53.198;6.570;2023-05-02T03:37:09;102201.56;;;8.27;100.00
20909;BME280;10614;53.198;6.570;2023-05-02T03:39:10;102214.66;;;8.25;100.00
20909;BME280;10614;53.198;6.570;2023-05-02T03:41:13;102207.69;;;8.22;100.00
20909;BME280;10614;53.198;6.570;2023-05-02T03:43:15;102216.47;;;8.20;100.00
20909;BME280;10614;53.198;6.570;2023-05-02T03:45:16;102214.72;;;8.20;100.00
20909;BME280;10614;53.198;6.570;2023-05-02T03:47:18;102208.59;;;8.18;100.00
20909;BME280;10614;53.198;6.570;2023-05-02T03:49:21;102218.25;;;8.15;100.00
20909;BME280;10614;53.198;6.570;2023-05-02T03:51:22;102219.16;;;8.11;99.68
20909;BME280;10614;53.198;6.570;2023-05-02T03:53:24;102225.31;;;8.08;98.88
20909;BME280;10614;53.198;6.570;2023-05-02T03:55:25;102231.41;;;8.07;98.39
20909;BME280;10614;53.198;6.570;2023-05-02T03:57:30;102233.16;;;8.05;97.57
20909;BME280;10614;53.198;6.570;2023-05-02T03:59:32;102233.22;;;7.99;96.98
20909;BME280;10614;53.198;6.570;2023-05-02T04:01:33;102242.00;;;7.96;96.67
20909;BME280;10614;53.198;6.570;2023-05-02T04:03:34;102247.25;;;7.90;96.08
20909;BME280;10614;53.198;6.570;2023-05-02T04:05:36;102242.91;;;7.86;95.34
20909;BME280;10614;53.198;6.570;2023-05-02T04:07:39;102251.69;;;7.87;94.84
20909;BME280;10614;53.198;6.570;2023-05-02T04:09:41;102245.53;;;7.86;94.23
20909;BME280;10614;53.198;6.570;2023-05-02T04:11:42;102249.91;;;7.87;93.83
20909;BME280;10614;53.198;6.570;2023-05-02T04:13:46;102252.53;;;7.84;93.29
20909;BME280;10614;53.198;6.570;2023-05-02T04:15:48;102254.31;;;7.80;92.18
20909;BME280;10614;53.198;6.570;2023-05-02T04:17:50;102256.97;;;7.77;91.66
20909;BME280;10614;53.198;6.570;2023-05-02T04:19:51;102261.34;;;7.74;91.17
20909;BME280;10614;53.198;6.570;2023-05-02T04:21:53;102257.00;;;7.73;90.26
20909;BME280;10614;53.198;6.570;2023-05-02T04:23:54;102259.63;;;7.73;90.17
20909;BME280;10614;53.198;6.570;2023-05-02T04:25:56;102263.97;;;7.72;89.68
20909;BME280;10614;53.198;6.570;2023-05-02T04:27:57;102265.75;;;7.70;89.03
20909;BME280;10614;53.198;6.570;2023-05-02T04:30:00;102279.72;;;7.71;88.50
20909;BME280;10614;53.198;6.570;2023-05-02T04:32:02;102279.75;;;7.66;86.98
20909;BME280;10614;53.198;6.570;2023-05-02T04:34:03;102287.59;;;7.65;85.03
20909;BME280;10614;53.198;6.570;2023-05-02T04:36:05;102277.13;;;7.61;83.26
20909;BME280;10614;53.198;6.570;2023-05-02T04:38:07;102284.13;;;7.58;83.43
20909;BME280;10614;53.198;6.570;2023-05-02T04:40:08;102285.88;;;7.56;82.75
20909;BME280;10614;53.198;6.570;2023-05-02T04:42:10;102290.28;;;7.54;81.87
20909;BME280;10614;53.198;6.570;2023-05-02T04:44:11;102295.53;;;7.52;81.75
20909;BME280;10614;53.198;6.570;2023-05-02T04:46:14;102295.53;;;7.52;80.85
20909;BME280;10614;53.198;6.570;2023-05-02T04:48:16;102292.91;;;7.49;80.31
20909;BME280;10614;53.198;6.570;2023-05-02T04:50:17;102305.13;;;7.49;80.20
20909;BME280;10614;53.198;6.570;2023-05-02T04:52:19;102308.63;;;7.52;80.07
20909;BME280;10614;53.198;6.570;2023-05-02T04:54:20;102305.13;;;7.52;80.25
20909;BME280;10614;53.198;6.570;2023-05-02T04:56:22;102309.47;;;7.53;80.00
20909;BME280;10614;53.198;6.570;2023-05-02T04:58:23;102313.88;;;7.54;80.37
20909;BME280;10614;53.198;6.570;2023-05-02T05:00:25;102309.47;;;7.57;80.10
20909;BME280;10614;53.198;6.570;2023-05-02T05:02:28;102311.19;;;7.60;80.81
20909;BME280;10614;53.198;6.570;2023-05-02T05:04:29;102313.81;;;7.63;81.06
20909;BME280;10614;53.198;6.570;2023-05-02T05:06:31;102316.41;;;7.68;80.73
20909;BME280;10614;53.198;6.570;2023-05-02T05:08:32;102314.69;;;7.67;81.26
20909;BME280;10614;53.198;6.570;2023-05-02T05:10:34;102320.78;;;7.69;82.08
20909;BME280;10614;53.198;6.570;2023-05-02T05:12:35;102326.88;;;7.72;81.66
20909;BME280;10614;53.198;6.570;2023-05-02T05:14:37;102329.50;;;7.75;82.20
20909;BME280;10614;53.198;6.570;2023-05-02T05:16:38;102325.09;;;7.79;82.29
20909;BME280;10614;53.198;6.570;2023-05-02T05:18:41;102326.81;;;7.81;82.42
20909;BME280;10614;53.198;6.570;2023-05-02T05:20:43;102332.97;;;7.80;82.22
20909;BME280;10614;53.198;6.570;2023-05-02T05:22:44;102336.44;;;7.81;81.73
20909;BME280;10614;53.198;6.570;2023-05-02T05:24:50;102341.69;;;7.79;82.36
20909;BME280;10614;53.198;6.570;2023-05-02T05:26:51;102351.34;;;7.76;82.47
20909;BME280;10614;53.198;6.570;2023-05-02T05:28:53;102343.47;;;7.76;82.64
20909;BME280;10614;53.198;6.570;2023-05-02T05:30:54;102358.31;;;7.77;82.94
20909;BME280;10614;53.198;6.570;2023-05-02T05:32:56;102355.69;;;7.78;82.48
20909;BME280;10614;53.198;6.570;2023-05-02T05:34:59;102366.19;;;7.80;82.40
20909;BME280;10614;53.198;6.570;2023-05-02T05:37:01;102363.56;;;7.78;81.75
20909;BME280;10614;53.198;6.570;2023-05-02T05:39:02;102380.16;;;7.77;80.06
20909;BME280;10614;53.198;6.570;2023-05-02T05:41:04;102370.53;;;7.76;80.28
20909;BME280;10614;53.198;6.570;2023-05-02T05:43:06;102366.19;;;7.75;80.46
20909;BME280;10614;53.198;6.570;2023-05-02T05:45:08;102375.78;;;7.76;80.20
20909;BME280;10614;53.198;6.570;2023-05-02T05:47:11;102374.94;;;7.77;80.46
20909;BME280;10614;53.198;6.570;2023-05-02T05:49:14;102377.53;;;7.79;80.23
20909;BME280;10614;53.198;6.570;2023-05-02T05:51:17;102378.38;;;7.79;80.00
20909;BME280;10614;53.198;6.570;2023-05-02T05:53:18;102382.75;;;7.79;79.68
20909;BME280;10614;53.198;6.570;2023-05-02T05:55:20;102392.38;;;7.77;79.74
20909;BME280;10614;53.198;6.570;2023-05-02T05:57:22;102395.88;;;7.79;79.70
20909;BME280;10614;53.198;6.570;2023-05-02T05:59:24;102399.34;;;7.79;79.57
20909;BME280;10614;53.198;6.570;2023-05-02T06:01:26;102399.34;;;7.79;79.50
20909;BME280;10614;53.198;6.570;2023-05-02T06:03:28;102395.00;;;7.83;79.81
20909;BME280;10614;53.198;6.570;2023-05-02T06:05:29;102409.84;;;7.82;79.56
20909;BME280;10614;53.198;6.570;2023-05-02T06:07:33;102407.22;;;7.86;78.72
20909;BME280;10614;53.198;6.570;2023-05-02T06:09:34;102409.00;;;7.82;77.42
20909;BME280;10614;53.198;6.570;2023-05-02T06:11:36;102415.97;;;7.77;76.69
20909;BME280;10614;53.198;6.570;2023-05-02T06:13:37;102416.00;;;7.74;76.67
20909;BME280;10614;53.198;6.570;2023-05-02T06:20:54;102428.19;;;7.81;76.57
20909;BME280;10614;53.198;6.570;2023-05-02T06:22:58;102435.19;;;7.83;75.76
20909;BME280;10614;53.198;6.570;2023-05-02T06:24:59;102434.31;;;7.81;75.59
20909;BME280;10614;53.198;6.570;2023-05-02T06:27:01;102427.34;;;7.80;74.65
20909;BME280;10614;53.198;6.570;2023-05-02T06:29:02;102432.56;;;7.80;74.01
20909;BME280;10614;53.198;6.570;2023-05-02T06:31:04;102443.06;;;7.82;73.56
20909;BME280;10614;53.198;6.570;2023-05-02T06:33:05;102441.31;;;7.82;73.34
20909;BME280;10614;53.198;6.570;2023-05-02T06:35:07;102451.81;;;7.82;73.59
20909;BME280;10614;53.198;6.570;2023-05-02T06:37:09;102461.41;;;7.85;73.51
20909;BME280;10614;53.198;6.570;2023-05-02T06:39:12;102464.91;;;7.87;73.31
20909;BME280;10614;53.198;6.570;2023-05-02T06:41:13;102471.91;;;7.87;71.75
20909;BME280;10614;53.198;6.570;2023-05-02T06:43:15;102471.03;;;7.85;71.72
20909;BME280;10614;53.198;6.570;2023-05-02T06:45:17;102479.75;;;7.83;71.67
20909;BME280;10614;53.198;6.570;2023-05-02T06:47:18;102485.00;;;7.80;70.13
20909;BME280;10614;53.198;6.570;2023-05-02T06:49:21;102487.63;;;7.76;69.95
20909;BME280;10614;53.198;6.570;2023-05-02T06:51:22;102489.41;;;7.71;69.21
20909;BME280;10614;53.198;6.570;2023-05-02T06:53:24;102481.50;;;7.72;69.88
20909;BME280;10614;53.198;6.570;2023-05-02T06:55:27;102485.00;;;7.74;70.35
20909;BME280;10614;53.198;6.570;2023-05-02T06:57:28;102490.25;;;7.79;70.11
20909;BME280;10614;53.198;6.570;2023-05-02T06:59:30;102495.50;;;7.77;69.19
20909;BME280;10614;53.198;6.570;2023-05-02T07:01:31;102492.88;;;7.76;68.21
20909;BME280;10614;53.198;6.570;2023-05-02T07:03:33;102492.00;;;7.74;67.88
20909;BME280;10614;53.198;6.570;2023-05-02T07:05:35;102487.66;;;7.73;67.83
20909;BME280;10614;53.198;6.570;2023-05-02T07:07:36;102509.47;;;7.72;67.25
20909;BME280;10614;53.198;6.570;2023-05-02T07:09:37;102503.38;;;7.70;67.26
20909;BME280;10614;53.198;6.570;2023-05-02T07:11:40;102516.50;;;7.73;66.78
20909;BME280;10614;53.198;6.570;2023-05-02T07:13:42;102510.38;;;7.75;65.71
20909;BME280;10614;53.198;6.570;2023-05-02T07:15:43;102513.84;;;7.70;65.61
20909;BME280;10614;53.198;6.570;2023-05-02T07:17:45;102511.22;;;7.70;64.66
20909;BME280;10614;53.198;6.570;2023-05-02T07:19:48;102513.00;;;7.61;64.69
20909;BME280;10614;53.198;6.570;2023-05-02T07:21:50;102512.13;;;7.56;64.58
20909;BME280;10614;53.198;6.570;2023-05-02T07:23:51;102516.50;;;7.59;65.11
20909;BME280;10614;53.198;6.570;2023-05-02T07:25:54;102524.34;;;7.62;64.97
20909;BME280;10614;53.198;6.570;2023-05-02T07:27:57;102524.34;;;7.60;64.82
20909;BME280;10614;53.198;6.570;2023-05-02T07:29:58;102519.97;;;7.64;65.23
20909;BME280;10614;53.198;6.570;2023-05-02T07:32:00;102523.47;;;7.69;65.54
20909;BME280;10614;53.198;6.570;2023-05-02T07:34:02;102524.34;;;7.73;65.70
20909;BME280;10614;53.198;6.570;2023-05-02T07:36:03;102527.81;;;7.79;66.09
20909;BME280;10614;53.198;6.570;2023-05-02T07:38:05;102527.84;;;7.82;66.21
20909;BME280;10614;53.198;6.570;2023-05-02T07:40:07;102524.28;;;7.91;66.09
20909;BME280;10614;53.198;6.570;2023-05-02T07:42:08;102529.53;;;7.91;67.02
20909;BME280;10614;53.198;6.570;2023-05-02T07:44:11;102522.56;;;7.92;67.17
20909;BME280;10614;53.198;6.570;2023-05-02T07:46:13;102530.41;;;7.98;67.30
20909;BME280;10614;53.198;6.570;2023-05-02T07:48:14;102535.63;;;8.02;67.41
20909;BME280;10614;53.198;6.570;2023-05-02T07:50:16;102537.41;;;8.03;65.23
20909;BME280;10614;53.198;6.570;2023-05-02T07:52:17;102547.00;;;8.04;64.31
20909;BME280;10614;53.198;6.570;2023-05-02T07:54:19;102551.38;;;8.04;64.02
20909;BME280;10614;53.198;6.570;2023-05-02T07:56:21;102547.91;;;8.03;64.29
20909;BME280;10614;53.198;6.570;2023-05-02T07:58:23;102549.63;;;8.06;64.90
20909;BME280;10614;53.198;6.570;2023-05-02T08:00:26;102548.75;;;8.13;66.28
20909;BME280;10614;53.198;6.570;2023-05-02T08:02:27;102549.59;;;8.18;67.24
20909;BME280;10614;53.198;6.570;2023-05-02T08:04:29;102556.56;;;8.25;68.11
20909;BME280;10614;53.198;6.570;2023-05-02T08:06:30;102557.44;;;8.32;68.33
20909;BME280;10614;53.198;6.570;2023-05-02T08:08:32;102563.53;;;8.37;67.31
20909;BME280;10614;53.198;6.570;2023-05-02T08:10:34;102554.78;;;8.37;67.22
20909;BME280;10614;53.198;6.570;2023-05-02T08:12:38;102555.69;;;8.34;67.24
20909;BME280;10614;53.198;6.570;2023-05-02T08:14:40;102555.69;;;8.34;67.31
20909;BME280;10614;53.198;6.570;2023-05-02T08:16:43;102561.78;;;8.35;67.41
20909;BME280;10614;53.198;6.570;2023-05-02T08:18:45;102568.78;;;8.34;67.48
20909;BME280;10614;53.198;6.570;2023-05-02T08:20:46;102566.16;;;8.37;67.29
20909;BME280;10614;53.198;6.570;2023-05-02T08:22:49;102569.66;;;8.38;67.69
20909;BME280;10614;53.198;6.570;2023-05-02T08:24:51;102567.06;;;8.41;66.98
20909;BME280;10614;53.198;6.570;2023-05-02T08:26:52;102561.78;;;8.39;65.81
20909;BME280;10614;53.198;6.570;2023-05-02T08:28:54;102569.66;;;8.39;65.05
20909;BME280;10614;53.198;6.570;2023-05-02T08:30:55;102564.44;;;8.41;64.32
20909;BME280;10614;53.198;6.570;2023-05-02T08:32:58;102553.91;;;8.39;63.70
20909;BME280;10614;53.198;6.570;2023-05-02T08:35:00;102566.19;;;8.43;63.72
20909;BME280;10614;53.198;6.570;2023-05-02T08:37:06;102565.28;;;8.49;63.73
20909;BME280;10614;53.198;6.570;2023-05-02T08:39:08;102564.38;;;8.55;63.67
20909;BME280;10614;53.198;6.570;2023-05-02T08:41:10;102571.34;;;8.60;63.24
20909;BME280;10614;53.198;6.570;2023-05-02T08:43:12;102576.56;;;8.68;62.94
20909;BME280;10614;53.198;6.570;2023-05-02T08:45:16;102581.81;;;8.74;62.48
20909;BME280;10614;53.198;6.570;2023-05-02T08:47:18;102586.13;;;8.80;62.34
20909;BME280;10614;53.198;6.570;2023-05-02T08:49:21;102582.63;;;8.85;61.26
20909;BME280;10614;53.198;6.570;2023-05-02T08:51:23;102584.34;;;8.86;61.47
20909;BME280;10614;53.198;6.570;2023-05-02T08:53:25;102587.88;;;8.82;61.51
20909;BME280;10614;53.198;6.570;2023-05-02T08:55:27;102604.53;;;8.81;61.71
20909;BME280;10614;53.198;6.570;2023-05-02T08:57:29;102595.75;;;8.82;60.86
20909;BME280;10614;53.198;6.570;2023-05-02T08:59:30;102603.63;;;8.88;61.44
20909;BME280;10614;53.198;6.570;2023-05-02T09:01:32;102598.34;;;8.92;61.72
20909;BME280;10614;53.198;6.570;2023-05-02T09:03:35;102599.19;;;8.94;61.20
20909;BME280;10614;53.198;6.570;2023-05-02T09:05:40;102609.69;;;9.01;61.68
20909;BME280;10614;53.198;6.570;2023-05-02T09:07:43;102609.66;;;9.03;61.11
20909;BME280;10614;53.198;6.570;2023-05-02T09:09:45;102604.44;;;9.01;61.55
20909;BME280;10614;53.198;6.570;2023-05-02T09:11:46;102621.91;;;9.07;62.17
20909;BME280;10614;53.198;6.570;2023-05-02T09:13:50;102642.94;;;9.07;61.73
20909;BME280;10614;53.198;6.570;2023-05-02T09:15:55;102628.06;;;8.98;62.02
20909;BME280;10614;53.198;6.570;2023-05-02T09:17:57;102629.84;;;8.96;61.87
20909;BME280;10614;53.198;6.570;2023-05-02T09:19:59;102623.72;;;8.96;62.39
20909;BME280;10614;53.198;6.570;2023-05-02T09:22:02;102620.19;;;9.01;62.67
20909;BME280;10614;53.198;6.570;2023-05-02T09:24:13;102628.03;;;9.06;62.85
20909;BME280;10614;53.198;6.570;2023-05-02T09:26:16;102643.78;;;9.07;65.13
20909;BME280;10614;53.198;6.570;2023-05-02T09:28:18;102645.56;;;9.05;66.44
20909;BME280;10614;53.198;6.570;2023-05-02T09:30:22;102640.34;;;8.99;67.63
20909;BME280;10614;53.198;6.570;2023-05-02T09:32:27;102641.22;;;8.94;68.39
20909;BME280;10614;53.198;6.570;2023-05-02T09:34:45;102638.59;;;8.95;69.52
20909;BME280;10614;53.198;6.570;2023-05-02T09:37:06;102640.34;;;8.96;69.13
20909;BME280;10614;53.198;6.570;2023-05-02T09:39:08;102649.97;;;8.97;68.13
20909;BME280;10614;53.198;6.570;2023-05-02T09:41:10;102648.22;;;8.98;67.19
20909;BME280;10614;53.198;6.570;2023-05-02T09:43:15;102647.31;;;8.99;67.82
20909;BME280;10614;53.198;6.570;2023-05-02T09:45:21;102641.16;;;9.06;67.32
20909;BME280;10614;53.198;6.570;2023-05-02T09:47:23;102651.66;;;9.12;66.59
20909;BME280;10614;53.198;6.570;2023-05-02T09:49:37;102657.75;;;9.19;65.63
20909;BME280;10614;53.198;6.570;2023-05-02T09:51:39;102650.75;;;9.18;65.78
20909;BME280;10614;53.198;6.570;2023-05-02T09:53:44;102648.97;;;9.23;65.78
20909;BME280;10614;53.198;6.570;2023-05-02T09:55:45;102648.94;;;9.32;65.84
20909;BME280;10614;53.198;6.570;2023-05-02T09:57:47;102659.38;;;9.38;65.27
20909;BME280;10614;53.198;6.570;2023-05-02T09:59:52;102664.69;;;9.37;64.65
20909;BME280;10614;53.198;6.570;2023-05-02T10:01:54;102663.81;;;9.28;63.72
20909;BME280;10614;53.198;6.570;2023-05-02T10:03:55;102661.22;;;9.22;63.82
20909;BME280;10614;53.198;6.570;2023-05-02T10:05:57;102664.75;;;9.17;63.40
20909;BME280;10614;53.198;6.570;2023-05-02T10:07:59;102660.41;;;9.13;64.23
20909;BME280;10614;53.198;6.570;2023-05-02T10:10:02;102667.38;;;9.20;64.48
20909;BME280;10614;53.198;6.570;2023-05-02T10:12:04;102660.34;;;9.22;64.85
20909;BME280;10614;53.198;6.570;2023-05-02T10:14:07;102668.22;;;9.26;64.84
20909;BME280;10614;53.198;6.570;2023-05-02T10:16:11;102651.53;;;9.34;64.73
20909;BME280;10614;53.198;6.570;2023-05-02T10:18:14;102656.69;;;9.47;65.14
20909;BME280;10614;53.198;6.570;2023-05-02T10:20:18;102663.63;;;9.59;65.18
20909;BME280;10614;53.198;6.570;2023-05-02T10:22:22;102661.81;;;9.70;64.30
20909;BME280;10614;53.198;6.570;2023-05-02T10:24:24;102669.63;;;9.81;64.38
20909;BME280;10614;53.198;6.570;2023-05-02T10:26:27;102677.47;;;9.87;60.10
20909;BME280;10614;53.198;6.570;2023-05-02T10:28:29;102681.91;;;9.79;60.23
20909;BME280;10614;53.198;6.570;2023-05-02T10:30:30;102675.78;;;9.77;61.46
20909;BME280;10614;53.198;6.570;2023-05-02T10:32:34;102688.00;;;9.83;60.19
20909;BME280;10614;53.198;6.570;2023-05-02T10:34:36;102685.47;;;9.70;59.94
20909;BME280;10614;53.198;6.570;2023-05-02T10:36:39;102692.50;;;9.68;60.00
20909;BME280;10614;53.198;6.570;2023-05-02T10:38:43;102684.66;;;9.64;60.86
20909;BME280;10614;53.198;6.570;2023-05-02T10:40:46;102694.28;;;9.63;61.30
20909;BME280;10614;53.198;6.570;2023-05-02T10:42:56;102695.19;;;9.59;61.76
20909;BME280;10614;53.198;6.570;2023-05-02T10:44:57;102693.41;;;9.60;62.34
20909;BME280;10614;53.198;6.570;2023-05-02T10:47:00;102709.19;;;9.60;64.05
20909;BME280;10614;53.198;6.570;2023-05-02T10:49:02;102703.94;;;9.61;67.17
20909;BME280;10614;53.198;6.570;2023-05-02T10:51:05;102720.66;;;9.49;68.54
20909;BME280;10614;53.198;6.570;2023-05-02T10:53:20;102704.94;;;9.42;69.55